»·PEaware :: N533S KSNA-KBUR

N533S :: KSNA-KBUR

FLIGHT INFORMATION

Flight Status: Arrived
Operator: Privately registered:
United States
More flights under this callsign
Pilot: Mark H. (22323)
Aircraft: BEECH AIRCRAFT BONANZA
(BE35)
More flights by this aircraft type
Origin: KSNA John Wayne-Orange Co
United States
Destination: KBUR Bob Hope-Burbank
United States
More flights between these airports :: More routes between these airports
Route: +SLI V23 POPPR SMO125R SMO SMO311R SILEX
File this flight plan on PilotEdge
Remarks: VECTORS TO ILS 08 - I3 SCENARIO
Altitude:
(Current/Filed)
4,000ft
Speed:
(Current/Filed)
155kts
Departed: 02-Dec-18 01:07 PM
Arrived: 02-Dec-18 02:12 PM
Distance/Time
Traveled:
40nm/1:05
Distance/Time
To Go:
Arrived

Flight Plot

Page will automatically refresh every two minutes.


Map Options




Map Legend


Flown Route
Filed Route
Departure Airport
Arrival Airport
Navaid (VOR, NDB)
Fix

Horizontal Profiles

Position Reports

Time Latitude Longitude Heading Altitude Ground
Speed
02-Dec-18 12:53 33.669135 -117.875160 28 59ft 0kts
02-Dec-18 12:54 33.669135 -117.875160 28 59ft 0kts
02-Dec-18 12:55 33.669135 -117.875160 28 59ft 0kts
02-Dec-18 12:56 33.669135 -117.875160 28 59ft 0kts
02-Dec-18 12:57 33.669135 -117.875160 28 59ft 0kts
02-Dec-18 12:58 33.669135 -117.875160 28 59ft 0kts
02-Dec-18 12:59 33.669135 -117.875160 28 59ft 0kts
02-Dec-18 13:00 33.669135 -117.875160 28 59ft 0kts
02-Dec-18 13:01 33.669344 -117.874341 29 59ft 10kts
02-Dec-18 13:02 33.673485 -117.871717 29 59ft 24kts
02-Dec-18 13:03 33.679682 -117.867934 24 59ft 27kts
02-Dec-18 13:04 33.681227 -117.866622 96 59ft 0kts
02-Dec-18 13:05 33.681227 -117.866622 96 59ft 0kts
02-Dec-18 13:06 33.681227 -117.866622 96 59ft 0kts
02-Dec-18 13:07 33.681227 -117.866622 96 59ft 0kts
02-Dec-18 13:08 33.681227 -117.866622 96 59ft 0kts
02-Dec-18 13:09 33.681227 -117.866622 96 59ft 0kts
02-Dec-18 13:10 33.676110 -117.868539 207 60ft 85kts
02-Dec-18 13:11 33.654843 -117.890427 231 785ft 122kts
02-Dec-18 13:12 33.631971 -117.924508 232 1488ft 140kts
02-Dec-18 13:13 33.633398 -117.960298 337 2154ft 138kts
02-Dec-18 13:14 33.665494 -117.981018 332 2819ft 131kts
02-Dec-18 13:15 33.695171 -117.999533 332 3470ft 123kts
02-Dec-18 13:16 33.723832 -118.017484 332 3979ft 127kts
02-Dec-18 13:17 33.757058 -118.038188 332 3993ft 148kts
02-Dec-18 13:18 33.787084 -118.068384 284 3989ft 159kts
02-Dec-18 13:29 33.669135 -117.875160 28 59ft 0kts
02-Dec-18 13:30 33.669135 -117.875160 28 59ft 0kts
02-Dec-18 13:31 33.669135 -117.875160 28 59ft 0kts
02-Dec-18 13:32 33.669135 -117.875160 28 59ft 0kts
02-Dec-18 13:33 33.669135 -117.875160 28 59ft 0kts
02-Dec-18 13:34 33.669135 -117.875160 28 59ft 0kts
02-Dec-18 13:35 33.669135 -117.875160 28 59ft 0kts
02-Dec-18 13:36 33.669135 -117.875160 28 59ft 0kts
02-Dec-18 13:37 33.669135 -117.875160 28 59ft 0kts
02-Dec-18 13:38 33.671916 -117.873329 29 59ft 21kts
02-Dec-18 13:39 33.676877 -117.869560 28 59ft 24kts
02-Dec-18 13:40 33.681239 -117.866527 100 59ft 0kts
02-Dec-18 13:41 33.681239 -117.866527 100 59ft 0kts
02-Dec-18 13:42 33.681239 -117.866527 100 59ft 0kts
02-Dec-18 13:43 33.681239 -117.866527 100 59ft 0kts
02-Dec-18 13:44 33.681228 -117.866473 104 59ft 5kts
02-Dec-18 13:45 33.667340 -117.874120 206 277ft 105kts
02-Dec-18 13:46 33.644254 -117.902065 231 1013ft 133kts
02-Dec-18 13:47 33.620000 -117.937201 231 1715ft 143kts
02-Dec-18 13:48 33.593821 -117.974241 231 2275ft 150kts
02-Dec-18 13:49 33.567139 -118.010699 231 2956ft 145kts
02-Dec-18 13:50 33.540694 -118.045614 231 3637ft 142kts
02-Dec-18 13:51 33.532486 -118.083161 333 3882ft 146kts
02-Dec-18 13:52 33.571710 -118.097292 341 3981ft 157kts
02-Dec-18 13:53 33.614386 -118.110055 342 3984ft 164kts
02-Dec-18 13:54 33.658149 -118.122616 342 3983ft 166kts
02-Dec-18 13:55 33.697033 -118.145823 318 3971ft 161kts
02-Dec-18 13:56 33.731179 -118.179059 317 3966ft 161kts
02-Dec-18 13:57 33.764981 -118.212510 317 3960ft 160kts
02-Dec-18 13:58 33.798580 -118.245808 317 3991ft 157kts
02-Dec-18 13:59 33.831707 -118.278675 318 3993ft 158kts
02-Dec-18 14:00 33.864439 -118.311199 318 3989ft 158kts
02-Dec-18 14:01 33.897096 -118.343605 320 3978ft 158kts
02-Dec-18 14:02 33.929469 -118.375806 318 3967ft 157kts
02-Dec-18 14:03 33.962115 -118.408332 320 3943ft 158kts
02-Dec-18 14:04 33.994924 -118.441003 322 3919ft 157kts
02-Dec-18 14:05 34.028527 -118.470983 324 4016ft 153kts
02-Dec-18 14:06 34.062910 -118.499037 324 4099ft 152kts
02-Dec-18 14:07 34.098136 -118.527719 324 4016ft 156kts
02-Dec-18 14:08 34.132569 -118.555501 328 4027ft 156kts
02-Dec-18 14:09 34.165951 -118.582807 323 4016ft 146kts
02-Dec-18 14:10 34.196311 -118.572409 61 3593ft 171kts
02-Dec-18 14:11 34.211098 -118.519224 96 2890ft 185kts
02-Dec-18 14:12 34.195954 -118.472922 81 2117ft 138kts
02-Dec-18 14:13 34.198793 -118.427594 83 1771ft 158kts
02-Dec-18 14:14 34.197837 -118.377895 88 1118ft 103kts
02-Dec-18 14:15 34.198552 -118.357991 0 781ft 14kts
02-Dec-18 14:16 34.198626 -118.357993 354 780ft 0kts
02-Dec-18 14:17 34.198693 -118.358001 353 780ft 0kts
02-Dec-18 14:18 34.198864 -118.358016 352 780ft 0kts
02-Dec-18 14:19 34.198972 -118.358038 346 780ft 0kts
02-Dec-18 14:20 34.199049 -118.358091 323 780ft 0kts
02-Dec-18 14:21 34.199106 -118.358145 318 780ft 0kts
02-Dec-18 14:22 34.199158 -118.358205 305 780ft 0kts
02-Dec-18 14:23 34.199164 -118.358228 281 780ft 0kts
02-Dec-18 14:24 34.199164 -118.358228 281 780ft 0kts
02-Dec-18 14:25 34.199164 -118.358228 281 780ft 0kts
02-Dec-18 14:26 34.200204 -118.358744 263 780ft 0kts
02-Dec-18 14:27 34.200204 -118.358744 263 780ft 0kts
02-Dec-18 14:28 34.200204 -118.358744 263 780ft 0kts
02-Dec-18 14:29 34.200204 -118.358744 263 780ft 0kts

Navigation Log

Ident Type
Flight plan parsing failed, navigation log unavailable